sensor_id;sensor_type;location;lat;lon;timestamp;pressure;altitude;pressure_sealevel;temperature
72236;BMP280;60146;52.498;13.462;2024-01-07T00:02:13;100437.66;;;0.99
72236;BMP280;60146;52.498;13.462;2024-01-07T00:04:40;100446.41;;;0.98
72236;BMP280;60146;52.498;13.462;2024-01-07T00:07:05;100432.22;;;0.89
72236;BMP280;60146;52.498;13.462;2024-01-07T00:09:30;100450.91;;;0.85
72236;BMP280;60146;52.498;13.462;2024-01-07T00:11:56;100452.06;;;0.89
72236;BMP280;60146;52.498;13.462;2024-01-07T00:14:21;100441.09;;;0.93
72236;BMP280;60146;52.498;13.462;2024-01-07T00:16:46;100449.25;;;0.90
72236;BMP280;60146;52.498;13.462;2024-01-07T00:19:12;100481.47;;;0.81
72236;BMP280;60146;52.498;13.462;2024-01-07T00:21:37;100455.44;;;0.89
72236;BMP280;60146;52.498;13.462;2024-01-07T00:24:02;100468.09;;;0.90
72236;BMP280;60146;52.498;13.462;2024-01-07T00:26:28;100452.28;;;0.87
72236;BMP280;60146;52.498;13.462;2024-01-07T00:28:53;100459.63;;;0.84
72236;BMP280;60146;52.498;13.462;2024-01-07T00:31:18;100462.44;;;0.82
72236;BMP280;60146;52.498;13.462;2024-01-07T00:33:44;100435.44;;;0.85
72236;BMP280;60146;52.498;13.462;2024-01-07T00:36:10;100449.31;;;0.84
72236;BMP280;60146;52.498;13.462;2024-01-07T00:38:35;100443.88;;;0.74
72236;BMP280;60146;52.498;13.462;2024-01-07T00:41:00;100474.91;;;0.68
72236;BMP280;60146;52.498;13.462;2024-01-07T00:43:25;100474.47;;;0.70
72236;BMP280;60146;52.498;13.462;2024-01-07T00:45:51;100465.44;;;0.62
72236;BMP280;60146;52.498;13.462;2024-01-07T00:48:16;100485.25;;;0.61
72236;BMP280;60146;52.498;13.462;2024-01-07T00:50:42;100532.44;;;0.62
72236;BMP280;60146;52.498;13.462;2024-01-07T00:53:08;100550.13;;;0.58
72236;BMP280;60146;52.498;13.462;2024-01-07T00:55:33;100589.91;;;0.62
72236;BMP280;60146;52.498;13.462;2024-01-07T00:58:00;100618.38;;;0.49
72236;BMP280;60146;52.498;13.462;2024-01-07T01:00:26;100621.66;;;0.56
72236;BMP280;60146;52.498;13.462;2024-01-07T01:02:52;100630.63;;;0.54
72236;BMP280;60146;52.498;13.462;2024-01-07T01:05:18;100644.50;;;0.53
72236;BMP280;60146;52.498;13.462;2024-01-07T01:07:43;100641.91;;;0.53
72236;BMP280;60146;52.498;13.462;2024-01-07T01:10:09;100657.56;;;0.58
72236;BMP280;60146;52.498;13.462;2024-01-07T01:12:34;100642.50;;;0.55
72236;BMP280;60146;52.498;13.462;2024-01-07T01:14:59;100660.19;;;0.45
72236;BMP280;60146;52.498;13.462;2024-01-07T01:17:25;100673.03;;;0.58
72236;BMP280;60146;52.498;13.462;2024-01-07T01:19:50;100687.53;;;0.46
72236;BMP280;60146;52.498;13.462;2024-01-07T01:22:15;100718.06;;;0.49
72236;BMP280;60146;52.498;13.462;2024-01-07T01:24:41;100739.88;;;0.46
72236;BMP280;60146;52.498;13.462;2024-01-07T01:27:07;100727.97;;;0.45
72236;BMP280;60146;52.498;13.462;2024-01-07T01:29:32;100735.16;;;0.37
72236;BMP280;60146;52.498;13.462;2024-01-07T01:31:58;100770.03;;;0.40
72236;BMP280;60146;52.498;13.462;2024-01-07T01:34:23;100759.34;;;0.36
72236;BMP280;60146;52.498;13.462;2024-01-07T01:36:49;100786.28;;;0.40
72236;BMP280;60146;52.498;13.462;2024-01-07T01:39:15;100753.00;;;0.39
72236;BMP280;60146;52.498;13.462;2024-01-07T01:41:40;100780.38;;;0.33
72236;BMP280;60146;52.498;13.462;2024-01-07T01:44:06;100778.03;;;0.25
72236;BMP280;60146;52.498;13.462;2024-01-07T01:46:32;100786.41;;;0.21
72236;BMP280;60146;52.498;13.462;2024-01-07T01:48:58;100807.78;;;0.22
72236;BMP280;60146;52.498;13.462;2024-01-07T01:51:24;100803.41;;;0.28
72236;BMP280;60146;52.498;13.462;2024-01-07T01:53:50;100798.47;;;0.21
72236;BMP280;60146;52.498;13.462;2024-01-07T01:56:17;100797.88;;;0.19
72236;BMP280;60146;52.498;13.462;2024-01-07T01:58:43;100808.00;;;0.07
72236;BMP280;60146;52.498;13.462;2024-01-07T02:01:09;100810.75;;;0.19
72236;BMP280;60146;52.498;13.462;2024-01-07T02:03:34;100792.34;;;0.15
72236;BMP280;60146;52.498;13.462;2024-01-07T02:06:00;100808.59;;;0.16
72236;BMP280;60146;52.498;13.462;2024-01-07T02:08:25;100812.94;;;0.15
72236;BMP280;60146;52.498;13.462;2024-01-07T02:10:51;100809.41;;;0.10
72236;BMP280;60146;52.498;13.462;2024-01-07T02:13:16;100798.69;;;0.13
72236;BMP280;60146;52.498;13.462;2024-01-07T02:15:43;100800.50;;;0.06
72236;BMP280;60146;52.498;13.462;2024-01-07T02:18:08;100802.84;;;0.07
72236;BMP280;60146;52.498;13.462;2024-01-07T02:20:34;100819.34;;;0.00
72236;BMP280;60146;52.498;13.462;2024-01-07T02:23:01;100817.13;;;0.03
72236;BMP280;60146;52.498;13.462;2024-01-07T02:25:26;100818.53;;;-0.07
72236;BMP280;60146;52.498;13.462;2024-01-07T02:27:51;100821.91;;;-0.06
72236;BMP280;60146;52.498;13.462;2024-01-07T02:30:17;100807.06;;;-0.11
72236;BMP280;60146;52.498;13.462;2024-01-07T02:32:42;100806.47;;;-0.19
72236;BMP280;60146;52.498;13.462;2024-01-07T02:35:08;100784.53;;;-0.28
72236;BMP280;60146;52.498;13.462;2024-01-07T02:37:34;100798.72;;;-0.38
72236;BMP280;60146;52.498;13.462;2024-01-07T02:39:59;100795.59;;;-0.47
72236;BMP280;60146;52.498;13.462;2024-01-07T02:42:25;100792.22;;;-0.47
72236;BMP280;60146;52.498;13.462;2024-01-07T02:44:50;100795.59;;;-0.53
72236;BMP280;60146;52.498;13.462;2024-01-07T02:47:15;100802.31;;;-0.58
72236;BMP280;60146;52.498;13.462;2024-01-07T02:49:41;100791.00;;;-0.57
72236;BMP280;60146;52.498;13.462;2024-01-07T02:52:06;100804.28;;;-0.67
72236;BMP280;60146;52.498;13.462;2024-01-07T02:54:31;100802.69;;;-0.68
72236;BMP280;60146;52.498;13.462;2024-01-07T02:56:57;100779.94;;;-0.70
72236;BMP280;60146;52.498;13.462;2024-01-07T02:59:22;100784.91;;;-0.75
72236;BMP280;60146;52.498;13.462;2024-01-07T03:01:47;100798.53;;;-0.81
72236;BMP280;60146;52.498;13.462;2024-01-07T03:04:14;100768.69;;;-0.82
72236;BMP280;60146;52.498;13.462;2024-01-07T03:06:40;100769.88;;;-0.85
72236;BMP280;60146;52.498;13.462;2024-01-07T03:09:06;100763.31;;;-0.87
72236;BMP280;60146;52.498;13.462;2024-01-07T03:11:31;100801.50;;;-0.84
72236;BMP280;60146;52.498;13.462;2024-01-07T03:13:56;100775.19;;;-0.93
72236;BMP280;60146;52.498;13.462;2024-01-07T03:16:23;100764.72;;;-0.91
72236;BMP280;60146;52.498;13.462;2024-01-07T03:18:49;100781.69;;;-0.96
72236;BMP280;60146;52.498;13.462;2024-01-07T03:21:22;100736.63;;;-0.99
72236;BMP280;60146;52.498;13.462;2024-01-07T03:23:48;100743.16;;;-1.03
72236;BMP280;60146;52.498;13.462;2024-01-07T03:26:14;100728.09;;;-1.06
72236;BMP280;60146;52.498;13.462;2024-01-07T03:28:39;100757.00;;;-1.04
72236;BMP280;60146;52.498;13.462;2024-01-07T03:31:08;100761.91;;;-1.09
72236;BMP280;60146;52.498;13.462;2024-01-07T03:33:34;100747.28;;;-1.08
72236;BMP280;60146;52.498;13.462;2024-01-07T03:35:59;100765.06;;;-1.07
72236;BMP280;60146;52.498;13.462;2024-01-07T03:38:24;100787.03;;;-1.11
72236;BMP280;60146;52.498;13.462;2024-01-07T03:40:50;100751.25;;;-1.12
72236;BMP280;60146;52.498;13.462;2024-01-07T03:43:15;100741.13;;;-1.14
72236;BMP280;60146;52.498;13.462;2024-01-07T03:45:40;100749.25;;;-1.16
72236;BMP280;60146;52.498;13.462;2024-01-07T03:48:06;100759.13;;;-1.14
72236;BMP280;60146;52.498;13.462;2024-01-07T03:50:32;100764.28;;;-1.20
72236;BMP280;60146;52.498;13.462;2024-01-07T03:52:57;100757.16;;;-1.18
72236;BMP280;60146;52.498;13.462;2024-01-07T03:55:22;100732.66;;;-1.20
72236;BMP280;60146;52.498;13.462;2024-01-07T03:57:48;100770.22;;;-1.19
72236;BMP280;60146;52.498;13.462;2024-01-07T04:00:13;100785.63;;;-1.19
72236;BMP280;60146;52.498;13.462;2024-01-07T04:02:39;100808.94;;;-1.15
72236;BMP280;60146;52.498;13.462;2024-01-07T04:05:04;100833.06;;;-1.22
72236;BMP280;60146;52.498;13.462;2024-01-07T04:07:29;100841.38;;;-1.20
72236;BMP280;60146;52.498;13.462;2024-01-07T04:09:55;100845.69;;;-1.27
72236;BMP280;60146;52.498;13.462;2024-01-07T04:12:23;100851.19;;;-1.30
72236;BMP280;60146;52.498;13.462;2024-01-07T04:14:49;100868.00;;;-1.27
72236;BMP280;60146;52.498;13.462;2024-01-07T04:17:14;100872.41;;;-1.21
72236;BMP280;60146;52.498;13.462;2024-01-07T04:19:39;100882.78;;;-1.29
72236;BMP280;60146;52.498;13.462;2024-01-07T04:22:05;100872.94;;;-1.26
72236;BMP280;60146;52.498;13.462;2024-01-07T04:24:30;100880.63;;;-1.32
72236;BMP280;60146;52.498;13.462;2024-01-07T04:26:55;100896.47;;;-1.29
72236;BMP280;60146;52.498;13.462;2024-01-07T04:29:21;100885.56;;;-1.31
72236;BMP280;60146;52.498;13.462;2024-01-07T04:31:46;100884.72;;;-1.38
72236;BMP280;60146;52.498;13.462;2024-01-07T04:34:11;100881.22;;;-1.30
72236;BMP280;60146;52.498;13.462;2024-01-07T04:36:37;100863.00;;;-1.35
72236;BMP280;60146;52.498;13.462;2024-01-07T04:39:02;100892.25;;;-1.36
72236;BMP280;60146;52.498;13.462;2024-01-07T04:41:27;100872.44;;;-1.42
72236;BMP280;60146;52.498;13.462;2024-01-07T04:43:53;100881.19;;;-1.37
72236;BMP280;60146;52.498;13.462;2024-01-07T04:46:18;100869.31;;;-1.38
72236;BMP280;60146;52.498;13.462;2024-01-07T04:48:43;100895.75;;;-1.43
72236;BMP280;60146;52.498;13.462;2024-01-07T04:51:09;100891.66;;;-1.38
72236;BMP280;60146;52.498;13.462;2024-01-07T04:53:34;100883.56;;;-1.35
72236;BMP280;60146;52.498;13.462;2024-01-07T04:55:59;100872.47;;;-1.36
72236;BMP280;60146;52.498;13.462;2024-01-07T04:58:25;100884.34;;;-1.41
72236;BMP280;60146;52.498;13.462;2024-01-07T05:00:50;100885.53;;;-1.37
72236;BMP280;60146;52.498;13.462;2024-01-07T05:03:15;100875.25;;;-1.37
72236;BMP280;60146;52.498;13.462;2024-01-07T05:05:41;100865.38;;;-1.40
72236;BMP280;60146;52.498;13.462;2024-01-07T05:08:06;100891.81;;;-1.46
72236;BMP280;60146;52.498;13.462;2024-01-07T05:10:32;100874.75;;;-1.53
72236;BMP280;60146;52.498;13.462;2024-01-07T05:12:57;100861.97;;;-1.47
72236;BMP280;60146;52.498;13.462;2024-01-07T05:15:23;100881.72;;;-1.47
72236;BMP280;60146;52.498;13.462;2024-01-07T05:17:48;100871.22;;;-1.52
72236;BMP280;60146;52.498;13.462;2024-01-07T05:20:17;100876.38;;;-1.46
72236;BMP280;60146;52.498;13.462;2024-01-07T05:22:42;100863.75;;;-1.47
72236;BMP280;60146;52.498;13.462;2024-01-07T05:25:08;100882.72;;;-1.42
72236;BMP280;60146;52.498;13.462;2024-01-07T05:27:34;100875.84;;;-1.41
72236;BMP280;60146;52.498;13.462;2024-01-07T05:29:59;100877.19;;;-1.45
72236;BMP280;60146;52.498;13.462;2024-01-07T05:32:24;100825.03;;;-1.46
72236;BMP280;60146;52.498;13.462;2024-01-07T05:34:50;100839.25;;;-1.50
72236;BMP280;60146;52.498;13.462;2024-01-07T05:37:16;100849.28;;;-1.55
72236;BMP280;60146;52.498;13.462;2024-01-07T05:39:41;100846.94;;;-1.50
72236;BMP280;60146;52.498;13.462;2024-01-07T05:42:06;100833.31;;;-1.50
72236;BMP280;60146;52.498;13.462;2024-01-07T05:44:32;100835.69;;;-1.49
72236;BMP280;60146;52.498;13.462;2024-01-07T05:46:57;100860.00;;;-1.45
72236;BMP280;60146;52.498;13.462;2024-01-07T05:49:22;100877.78;;;-1.43
72236;BMP280;60146;52.498;13.462;2024-01-07T05:51:48;100875.19;;;-1.50
72236;BMP280;60146;52.498;13.462;2024-01-07T05:54:14;100853.06;;;-1.51
72236;BMP280;60146;52.498;13.462;2024-01-07T05:56:39;100869.66;;;-1.47
72236;BMP280;60146;52.498;13.462;2024-01-07T05:59:08;100839.47;;;-1.39
72236;BMP280;60146;52.498;13.462;2024-01-07T06:01:33;100860.44;;;-1.41
72236;BMP280;60146;52.498;13.462;2024-01-07T06:04:00;100847.59;;;-1.35
72236;BMP280;60146;52.498;13.462;2024-01-07T06:06:25;100858.31;;;-1.25
72236;BMP280;60146;52.498;13.462;2024-01-07T06:08:51;100875.75;;;-1.21
72236;BMP280;60146;52.498;13.462;2024-01-07T06:11:16;100901.28;;;-1.13
72236;BMP280;60146;52.498;13.462;2024-01-07T06:13:45;100908.00;;;-1.12
72236;BMP280;60146;52.498;13.462;2024-01-07T06:16:10;100932.81;;;-0.92
72236;BMP280;60146;52.498;13.462;2024-01-07T06:18:36;100953.56;;;-0.87
72236;BMP280;60146;52.498;13.462;2024-01-07T06:21:01;100969.59;;;-0.92
72236;BMP280;60146;52.498;13.462;2024-01-07T06:23:27;100998.94;;;-0.73
72236;BMP280;60146;52.498;13.462;2024-01-07T06:25:53;100984.66;;;-0.82
72236;BMP280;60146;52.498;13.462;2024-01-07T06:28:18;100988.81;;;-0.81
72236;BMP280;60146;52.498;13.462;2024-01-07T06:30:43;101001.94;;;-0.64
72236;BMP280;60146;52.498;13.462;2024-01-07T06:33:09;101002.06;;;-0.78
72236;BMP280;60146;52.498;13.462;2024-01-07T06:35:34;101006.06;;;-0.75
72236;BMP280;60146;52.498;13.462;2024-01-07T06:37:59;101014.97;;;-0.71
72236;BMP280;60146;52.498;13.462;2024-01-07T06:40:25;101008.28;;;-0.66
72236;BMP280;60146;52.498;13.462;2024-01-07T06:42:51;100998.53;;;-0.70
72236;BMP280;60146;52.498;13.462;2024-01-07T06:45:17;101025.06;;;-0.70
72236;BMP280;60146;52.498;13.462;2024-01-07T06:47:42;100999.72;;;-0.73
72236;BMP280;60146;52.498;13.462;2024-01-07T06:50:10;101025.44;;;-0.67
72236;BMP280;60146;52.498;13.462;2024-01-07T06:52:35;101003.72;;;-0.64
72236;BMP280;60146;52.498;13.462;2024-01-07T06:55:00;101025.50;;;-0.60
72236;BMP280;60146;52.498;13.462;2024-01-07T06:57:26;101044.88;;;-0.58
72236;BMP280;60146;52.498;13.462;2024-01-07T06:59:51;101032.38;;;-0.67
72236;BMP280;60146;52.498;13.462;2024-01-07T07:02:17;101030.59;;;-0.67
72236;BMP280;60146;52.498;13.462;2024-01-07T07:04:42;101038.34;;;-0.60
72236;BMP280;60146;52.498;13.462;2024-01-07T07:07:08;101054.63;;;-0.53
72236;BMP280;60146;52.498;13.462;2024-01-07T07:09:33;101056.00;;;-0.51
72236;BMP280;60146;52.498;13.462;2024-01-07T07:11:59;101089.69;;;-0.46
72236;BMP280;60146;52.498;13.462;2024-01-07T07:14:25;101087.66;;;-0.50
72236;BMP280;60146;52.498;13.462;2024-01-07T07:16:50;101084.88;;;-0.55
72236;BMP280;60146;52.498;13.462;2024-01-07T07:19:16;101085.28;;;-0.52
72236;BMP280;60146;52.498;13.462;2024-01-07T07:21:43;101085.72;;;-0.42
72236;BMP280;60146;52.498;13.462;2024-01-07T07:24:09;101107.31;;;-0.43
72236;BMP280;60146;52.498;13.462;2024-01-07T07:26:35;101114.22;;;-0.44
72236;BMP280;60146;52.498;13.462;2024-01-07T07:29:01;101119.53;;;-0.51
72236;BMP280;60146;52.498;13.462;2024-01-07T07:31:27;101107.06;;;-0.48
72236;BMP280;60146;52.498;13.462;2024-01-07T07:33:52;101130.22;;;-0.48
72236;BMP280;60146;52.498;13.462;2024-01-07T07:36:17;101124.91;;;-0.40
72236;BMP280;60146;52.498;13.462;2024-01-07T07:38:43;101137.56;;;-0.45
72236;BMP280;60146;52.498;13.462;2024-01-07T07:41:08;101152.63;;;-0.42
72236;BMP280;60146;52.498;13.462;2024-01-07T07:43:33;101151.88;;;-0.36
72236;BMP280;60146;52.498;13.462;2024-01-07T07:45:59;101174.66;;;-0.33
72236;BMP280;60146;52.498;13.462;2024-01-07T07:48:26;101163.38;;;-0.32
72236;BMP280;60146;52.498;13.462;2024-01-07T07:50:53;101162.66;;;-0.26
72236;BMP280;60146;52.498;13.462;2024-01-07T07:53:18;101162.66;;;-0.20
72236;BMP280;60146;52.498;13.462;2024-01-07T07:55:44;101150.84;;;-0.08
72236;BMP280;60146;52.498;13.462;2024-01-07T07:58:09;101167.47;;;-0.11
72236;BMP280;60146;52.498;13.462;2024-01-07T08:00:35;101183.53;;;-0.09
72236;BMP280;60146;52.498;13.462;2024-01-07T08:03:00;101183.72;;;-0.04
72236;BMP280;60146;52.498;13.462;2024-01-07T08:05:26;101175.00;;;-0.09
72236;BMP280;60146;52.498;13.462;2024-01-07T08:07:51;101161.56;;;-0.05
72236;BMP280;60146;52.498;13.462;2024-01-07T08:10:17;101163.97;;;0.03
72236;BMP280;60146;52.498;13.462;2024-01-07T08:12:42;101171.69;;;0.03
72236;BMP280;60146;52.498;13.462;2024-01-07T08:15:08;101170.09;;;0.02
72236;BMP280;60146;52.498;13.462;2024-01-07T08:17:33;101192.97;;;0.24
72236;BMP280;60146;52.498;13.462;2024-01-07T08:19:59;101206.00;;;0.16
72236;BMP280;60146;52.498;13.462;2024-01-07T08:22:25;101195.69;;;0.10
72236;BMP280;60146;52.498;13.462;2024-01-07T08:24:50;101215.75;;;0.21
72236;BMP280;60146;52.498;13.462;2024-01-07T08:27:16;101214.72;;;0.15
72236;BMP280;60146;52.498;13.462;2024-01-07T08:29:44;101197.69;;;0.14
72236;BMP280;60146;52.498;13.462;2024-01-07T08:32:10;101208.22;;;0.19
72236;BMP280;60146;52.498;13.462;2024-01-07T08:34:37;101220.06;;;0.14
72236;BMP280;60146;52.498;13.462;2024-01-07T08:37:03;101204.81;;;0.19
72236;BMP280;60146;52.498;13.462;2024-01-07T08:39:28;101236.81;;;0.49
72236;BMP280;60146;52.498;13.462;2024-01-07T08:41:54;101224.50;;;0.45
72236;BMP280;60146;52.498;13.462;2024-01-07T08:44:20;101207.69;;;0.49
72236;BMP280;60146;52.498;13.462;2024-01-07T08:46:45;101216.41;;;0.54
72236;BMP280;60146;52.498;13.462;2024-01-07T08:49:11;101228.13;;;0.63
72236;BMP280;60146;52.498;13.462;2024-01-07T08:51:36;101230.50;;;0.65
72236;BMP280;60146;52.498;13.462;2024-01-07T08:54:02;101234.69;;;0.72
72236;BMP280;60146;52.498;13.462;2024-01-07T08:56:28;101223.97;;;0.75
72236;BMP280;60146;52.498;13.462;2024-01-07T08:58:53;101244.03;;;0.79
72236;BMP280;60146;52.498;13.462;2024-01-07T09:01:19;101275.00;;;0.92
72236;BMP280;60146;52.498;13.462;2024-01-07T09:03:44;101276.81;;;0.98
72236;BMP280;60146;52.498;13.462;2024-01-07T09:06:10;101265.50;;;0.99
72236;BMP280;60146;52.498;13.462;2024-01-07T09:08:35;101261.56;;;1.15
72236;BMP280;60146;52.498;13.462;2024-01-07T09:11:03;101288.91;;;1.10
72236;BMP280;60146;52.498;13.462;2024-01-07T09:13:29;101298.84;;;1.19
72236;BMP280;60146;52.498;13.462;2024-01-07T09:15:54;101305.81;;;1.25
72236;BMP280;60146;52.498;13.462;2024-01-07T09:18:20;101301.41;;;1.32
72236;BMP280;60146;52.498;13.462;2024-01-07T09:20:46;101317.31;;;1.35
72236;BMP280;60146;52.498;13.462;2024-01-07T09:23:12;101299.47;;;1.28
72236;BMP280;60146;52.498;13.462;2024-01-07T09:25:37;101318.31;;;1.35
72236;BMP280;60146;52.498;13.462;2024-01-07T09:28:02;101308.97;;;1.40
72236;BMP280;60146;52.498;13.462;2024-01-07T09:30:29;101308.56;;;1.36
72236;BMP280;60146;52.498;13.462;2024-01-07T09:32:54;101301.44;;;1.45
72236;BMP280;60146;52.498;13.462;2024-01-07T09:35:20;101307.97;;;1.60
72236;BMP280;60146;52.498;13.462;2024-01-07T09:37:45;101293.09;;;1.56
72236;BMP280;60146;52.498;13.462;2024-01-07T09:40:11;101284.75;;;1.66
72236;BMP280;60146;52.498;13.462;2024-01-07T09:42:37;101297.84;;;1.58
72236;BMP280;60146;52.498;13.462;2024-01-07T09:45:03;101272.25;;;1.63
72236;BMP280;60146;52.498;13.462;2024-01-07T09:47:29;101266.50;;;1.61
72236;BMP280;60146;52.498;13.462;2024-01-07T09:49:55;101262.09;;;1.56
72236;BMP280;60146;52.498;13.462;2024-01-07T09:52:20;101245.03;;;1.55
72236;BMP280;60146;52.498;13.462;2024-01-07T09:54:51;101236.88;;;1.70
72236;BMP280;60146;52.498;13.462;2024-01-07T09:57:16;101232.91;;;1.49
72236;BMP280;60146;52.498;13.462;2024-01-07T09:59:41;101222.41;;;1.44
72236;BMP280;60146;52.498;13.462;2024-01-07T10:02:07;101221.00;;;1.41
72236;BMP280;60146;52.498;13.462;2024-01-07T10:04:32;101204.94;;;1.46
72236;BMP280;60146;52.498;13.462;2024-01-07T10:06:58;101217.03;;;1.39
72236;BMP280;60146;52.498;13.462;2024-01-07T10:09:32;101190.84;;;1.42
72236;BMP280;60146;52.498;13.462;2024-01-07T10:11:58;101180.69;;;1.47
72236;BMP280;60146;52.498;13.462;2024-01-07T10:14:23;101187.03;;;1.51
72236;BMP280;60146;52.498;13.462;2024-01-07T10:16:53;101158.66;;;1.51
72236;BMP280;60146;52.498;13.462;2024-01-07T10:19:23;101155.63;;;1.60
72236;BMP280;60146;52.498;13.462;2024-01-07T10:22:04;101182.66;;;1.64
72236;BMP280;60146;52.498;13.462;2024-01-07T10:24:35;101175.13;;;1.56
72236;BMP280;60146;52.498;13.462;2024-01-07T10:27:03;101157.44;;;1.59
72236;BMP280;60146;52.498;13.462;2024-01-07T10:29:29;101149.09;;;1.64
72236;BMP280;60146;52.498;13.462;2024-01-07T10:31:58;101134.34;;;1.77
72236;BMP280;60146;52.498;13.462;2024-01-07T10:34:24;101127.81;;;1.75
72236;BMP280;60146;52.498;13.462;2024-01-07T10:36:53;101118.84;;;1.77
72236;BMP280;60146;52.498;13.462;2024-01-07T10:39:19;101129.00;;;1.72
72236;BMP280;60146;52.498;13.462;2024-01-07T10:41:46;101104.19;;;1.71
72236;BMP280;60146;52.498;13.462;2024-01-07T10:44:13;101103.28;;;1.83
72236;BMP280;60146;52.498;13.462;2024-01-07T10:46:39;101114.00;;;1.87
72236;BMP280;60146;52.498;13.462;2024-01-07T10:49:15;101106.25;;;1.87
72236;BMP280;60146;52.498;13.462;2024-01-07T10:51:45;101110.59;;;1.93
72236;BMP280;60146;52.498;13.462;2024-01-07T10:54:13;101094.34;;;1.86
72236;BMP280;60146;52.498;13.462;2024-01-07T10:56:45;101088.56;;;1.90
72236;BMP280;60146;52.498;13.462;2024-01-07T10:59:10;101079.25;;;1.83
72236;BMP280;60146;52.498;13.462;2024-01-07T11:01:36;101046.69;;;1.82
72236;BMP280;60146;52.498;13.462;2024-01-07T11:04:16;101073.44;;;1.94
72236;BMP280;60146;52.498;13.462;2024-01-07T11:09:36;101057.50;;;2.03
72236;BMP280;60146;52.498;13.462;2024-01-07T11:12:03;101068.97;;;2.07
72236;BMP280;60146;52.498;13.462;2024-01-07T11:17:08;101067.00;;;2.33
72236;BMP280;60146;52.498;13.462;2024-01-07T11:19:35;101028.91;;;2.22
72236;BMP280;60146;52.498;13.462;2024-01-07T11:22:28;101052.06;;;2.11
72236;BMP280;60146;52.498;13.462;2024-01-07T11:24:54;101042.53;;;2.11
72236;BMP280;60146;52.498;13.462;2024-01-07T11:27:24;101044.91;;;2.13
72236;BMP280;60146;52.498;13.462;2024-01-07T11:29:56;101019.44;;;2.16
72236;BMP280;60146;52.498;13.462;2024-01-07T11:32:39;101039.03;;;2.24
72236;BMP280;60146;52.498;13.462;2024-01-07T11:35:05;101046.31;;;2.33
72236;BMP280;60146;52.498;13.462;2024-01-07T11:37:30;101050.34;;;2.29
72236;BMP280;60146;52.498;13.462;2024-01-07T11:39:56;101036.16;;;2.38
72236;BMP280;60146;52.498;13.462;2024-01-07T11:42:25;101043.97;;;2.25
72236;BMP280;60146;52.498;13.462;2024-01-07T11:44:55;101012.72;;;2.33
72236;BMP280;60146;52.498;13.462;2024-01-07T11:47:22;101001.06;;;2.24
72236;BMP280;60146;52.498;13.462;2024-01-07T11:49:47;100982.91;;;2.30
72236;BMP280;60146;52.498;13.462;2024-01-07T11:52:14;100981.34;;;2.29
72236;BMP280;60146;52.498;13.462;2024-01-07T11:54:40;100965.56;;;2.20
72236;BMP280;60146;52.498;13.462;2024-01-07T11:57:07;100961.00;;;2.15
72236;BMP280;60146;52.498;13.462;2024-01-07T11:59:35;100928.91;;;2.23
72236;BMP280;60146;52.498;13.462;2024-01-07T12:02:02;100915.97;;;2.23
72236;BMP280;60146;52.498;13.462;2024-01-07T12:04:30;100892.97;;;2.21
72236;BMP280;60146;52.498;13.462;2024-01-07T12:06:55;100895.38;;;2.16
72236;BMP280;60146;52.498;13.462;2024-01-07T12:09:21;100867.56;;;2.18
72236;BMP280;60146;52.498;13.462;2024-01-07T12:11:46;100897.91;;;2.23
72236;BMP280;60146;52.498;13.462;2024-01-07T12:14:12;100884.47;;;2.32
72236;BMP280;60146;52.498;13.462;2024-01-07T12:16:38;100875.09;;;2.20
72236;BMP280;60146;52.498;13.462;2024-01-07T12:19:03;100857.41;;;2.17
72236;BMP280;60146;52.498;13.462;2024-01-07T12:21:29;100856.50;;;2.29
72236;BMP280;60146;52.498;13.462;2024-01-07T12:23:55;100844.31;;;2.18
72236;BMP280;60146;52.498;13.462;2024-01-07T12:26:25;100817.72;;;2.29
72236;BMP280;60146;52.498;13.462;2024-01-07T12:28:55;100829.84;;;2.28
72236;BMP280;60146;52.498;13.462;2024-01-07T12:31:23;100832.34;;;2.35
72236;BMP280;60146;52.498;13.462;2024-01-07T12:33:48;100821.66;;;2.31
72236;BMP280;60146;52.498;13.462;2024-01-07T12:36:13;100798.34;;;2.38
72236;BMP280;60146;52.498;13.462;2024-01-07T12:38:40;100782.81;;;2.38
72236;BMP280;60146;52.498;13.462;2024-01-07T12:41:06;100776.66;;;2.39
72236;BMP280;60146;52.498;13.462;2024-01-07T12:43:32;100797.31;;;2.39
72236;BMP280;60146;52.498;13.462;2024-01-07T12:45:57;100813.97;;;2.43
72236;BMP280;60146;52.498;13.462;2024-01-07T12:48:26;100825.59;;;2.51
72236;BMP280;60146;52.498;13.462;2024-01-07T12:50:51;100816.22;;;2.39
72236;BMP280;60146;52.498;13.462;2024-01-07T12:53:17;100804.34;;;2.49
72236;BMP280;60146;52.498;13.462;2024-01-07T12:55:43;100772.16;;;2.46
72236;BMP280;60146;52.498;13.462;2024-01-07T12:58:08;100759.47;;;2.44
72236;BMP280;60146;52.498;13.462;2024-01-07T13:00:34;100743.09;;;2.50
72236;BMP280;60146;52.498;13.462;2024-01-07T13:03:00;100714.53;;;2.56
72236;BMP280;60146;52.498;13.462;2024-01-07T13:05:26;100685.22;;;2.51
72236;BMP280;60146;52.498;13.462;2024-01-07T13:07:51;100633.38;;;2.46
72236;BMP280;60146;52.498;13.462;2024-01-07T13:10:16;100594.13;;;2.38
72236;BMP280;60146;52.498;13.462;2024-01-07T13:12:42;100610.28;;;2.33
72236;BMP280;60146;52.498;13.462;2024-01-07T13:15:08;100548.63;;;2.37
72236;BMP280;60146;52.498;13.462;2024-01-07T13:17:33;100545.59;;;2.40
72236;BMP280;60146;52.498;13.462;2024-01-07T13:19:59;100516.59;;;2.38
72236;BMP280;60146;52.498;13.462;2024-01-07T13:22:25;100505.72;;;2.47
72236;BMP280;60146;52.498;13.462;2024-01-07T13:24:50;100523.56;;;2.37
72236;BMP280;60146;52.498;13.462;2024-01-07T13:27:16;100475.03;;;2.39
72236;BMP280;60146;52.498;13.462;2024-01-07T13:29:43;100444.66;;;2.35
72236;BMP280;60146;52.498;13.462;2024-01-07T13:32:12;100462.97;;;2.33
72236;BMP280;60146;52.498;13.462;2024-01-07T13:34:37;100383.56;;;2.29
72236;BMP280;60146;52.498;13.462;2024-01-07T13:37:03;100371.09;;;2.37
72236;BMP280;60146;52.498;13.462;2024-01-07T13:39:28;100340.84;;;2.26
72236;BMP280;60146;52.498;13.462;2024-01-07T13:41:55;100311.28;;;2.34
72236;BMP280;60146;52.498;13.462;2024-01-07T13:44:21;100317.00;;;2.36
72236;BMP280;60146;52.498;13.462;2024-01-07T13:46:46;100339.59;;;2.40
72236;BMP280;60146;52.498;13.462;2024-01-07T13:49:13;100322.84;;;2.43
72236;BMP280;60146;52.498;13.462;2024-01-07T13:51:39;100293.88;;;2.41